Time;durP1;ratioP1;P1;durP2;ratioP2;P2;SDS_P1;SDS_P2;PMS_P1;PMS_P2;Temp;Humidity;BMP_temperature;BMP_pressure;BME280_temperature;BME280_humidity;BME280_pressure;Samples;Min_cycle;Max_cycle;Signal;HPM_P1;HPM_P2
2022/01/08 00:04:09;;;;;;;19.33;8.87;;;;;;;;;;10373309;28;20441;-59
2022/01/08 00:09:10;;;;;;;17.33;9.17;;;;;;;;;;10373848;28;20377;-62
2022/01/08 00:14:11;;;;;;;20.17;8.68;;;;;;;;;;10373327;28;20049;-58
2022/01/08 00:19:11;;;;;;;16.83;9.18;;;;;;;;;;10373630;28;20076;-59
2022/01/08 00:24:11;;;;;;;18.23;8.93;;;;;;;;;;10373089;28;20445;-58
2022/01/08 00:29:12;;;;;;;17.52;8.52;;;;;;;;;;10373406;28;20448;-58
2022/01/08 00:34:12;;;;;;;18.63;9.13;;;;;;;;;;10373319;28;20029;-58
2022/01/08 00:39:13;;;;;;;14.00;7.75;;;;;;;;;;10372658;28;20843;-57
2022/01/08 00:44:16;;;;;;;16.30;8.43;;;;;;;;;;10372214;28;20042;-56
2022/01/08 00:49:16;;;;;;;15.35;7.90;;;;;;;;;;10372172;28;20026;-58
2022/01/08 00:54:16;;;;;;;16.40;7.70;;;;;;;;;;10370608;28;20026;-56
2022/01/08 00:59:17;;;;;;;13.60;8.10;;;;;;;;;;10367657;28;20458;-57
2022/01/08 01:04:18;;;;;;;13.23;7.45;;;;;;;;;;10371400;28;20026;-57
2022/01/08 01:09:19;;;;;;;14.00;7.78;;;;;;;;;;10368776;28;20076;-57
2022/01/08 01:14:19;;;;;;;14.38;7.38;;;;;;;;;;10371243;28;20477;-57
2022/01/08 01:19:21;;;;;;;17.53;7.80;;;;;;;;;;10371191;28;20022;-58
2022/01/08 01:24:24;;;;;;;16.60;8.00;;;;;;;;;;10370929;28;20064;-57
2022/01/08 01:29:38;;;;;;;13.85;7.22;;;;;;;;;;10371112;28;20083;-57
2022/01/08 01:50:35;;;;;;;14.65;7.35;;;;;;;;;;10370130;28;19913;-58
2022/01/08 01:55:35;;;;;;;10.25;7.03;;;;;;;;;;10369743;28;20038;-57
2022/01/08 02:00:36;;;;;;;16.10;6.55;;;;;;;;;;10368779;28;20033;-57
2022/01/08 02:05:36;;;;;;;10.40;6.90;;;;;;;;;;10365428;28;20064;-58
2022/01/08 02:10:37;;;;;;;13.77;6.82;;;;;;;;;;10369669;28;20049;-58
2022/01/08 02:15:39;;;;;;;14.20;7.20;;;;;;;;;;10365885;28;20050;-58
2022/01/08 02:20:40;;;;;;;16.38;6.47;;;;;;;;;;10368903;28;20890;-58
2022/01/08 02:25:40;;;;;;;15.23;7.07;;;;;;;;;;10369093;28;20108;-58
2022/01/08 02:30:41;;;;;;;12.13;6.80;;;;;;;;;;10367473;28;20476;-58
2022/01/08 02:35:41;;;;;;;12.57;7.27;;;;;;;;;;10368848;28;20477;-59
2022/01/08 02:40:50;;;;;;;10.35;7.10;;;;;;;;;;10368358;28;20451;-58
2022/01/08 02:45:51;;;;;;;;;;;;;;;;;;10368630;28;20042;-59
2022/01/08 02:50:51;;;;;;;13.80;7.30;;;;;;;;;;10368505;28;19914;-59
2022/01/08 02:55:51;;;;;;;11.13;7.13;;;;;;;;;;10367988;28;20034;-59
2022/01/08 03:00:52;;;;;;;12.60;6.67;;;;;;;;;;10367711;28;20459;-59
2022/01/08 03:05:52;;;;;;;11.23;6.80;;;;;;;;;;10368228;28;20873;-58
2022/01/08 03:10:53;;;;;;;9.30;6.78;;;;;;;;;;10368045;28;20034;-58
2022/01/08 03:15:54;;;;;;;10.95;7.10;;;;;;;;;;10365487;28;20046;-58
2022/01/08 03:21:02;;;;;;;10.40;6.50;;;;;;;;;;10375676;28;20018;-59
2022/01/08 03:26:03;;;;;;;13.63;6.43;;;;;;;;;;10376065;28;20521;-58
2022/01/08 03:31:03;;;;;;;12.20;6.85;;;;;;;;;;10375801;28;20056;-58
2022/01/08 03:36:05;;;;;;;10.37;6.70;;;;;;;;;;10375259;28;20025;-58
2022/01/08 03:41:05;;;;;;;9.70;6.70;;;;;;;;;;10374850;28;20990;-59
2022/01/08 03:46:06;;;;;;;12.00;6.05;;;;;;;;;;10374729;28;20030;-59
2022/01/08 03:51:06;;;;;;;10.40;6.78;;;;;;;;;;10374538;28;20091;-58
2022/01/08 03:56:07;;;;;;;10.67;6.57;;;;;;;;;;10373948;28;20026;-58
2022/01/08 04:01:07;;;;;;;10.30;6.33;;;;;;;;;;10374046;28;20981;-59
2022/01/08 04:06:08;;;;;;;8.97;7.00;;;;;;;;;;10374085;28;20428;-59
2022/01/08 04:11:08;;;;;;;9.15;6.50;;;;;;;;;;10373697;28;20476;-58
2022/01/08 04:16:13;;;;;;;10.90;6.03;;;;;;;;;;10370449;28;20050;-58
2022/01/08 04:26:16;;;;;;;8.73;6.30;;;;;;;;;;10369937;28;20393;-60
2022/01/08 04:31:17;;;;;;;9.23;6.85;;;;;;;;;;10372992;28;20026;-60
2022/01/08 04:36:17;;;;;;;8.10;5.83;;;;;;;;;;10373379;28;20029;-58
2022/01/08 04:41:18;;;;;;;7.65;5.82;;;;;;;;;;10372885;28;20489;-60
2022/01/08 04:46:18;;;;;;;8.68;5.82;;;;;;;;;;10372508;28;20030;-58
2022/01/08 04:51:18;;;;;;;10.00;5.80;;;;;;;;;;10372654;28;20037;-57
2022/01/08 04:56:19;;;;;;;8.87;5.53;;;;;;;;;;10372069;28;20084;-58
2022/01/08 05:01:19;;;;;;;8.67;5.87;;;;;;;;;;10372131;28;20467;-58
2022/01/08 05:06:20;;;;;;;9.17;6.10;;;;;;;;;;10371774;28;20093;-58
2022/01/08 05:11:20;;;;;;;8.50;5.90;;;;;;;;;;10371296;28;20505;-58
2022/01/08 05:16:21;;;;;;;8.13;5.73;;;;;;;;;;10372176;28;20089;-58
2022/01/08 05:21:28;;;;;;;7.93;5.60;;;;;;;;;;10370756;28;21033;-58
2022/01/08 05:26:28;;;;;;;7.75;5.68;;;;;;;;;;10367948;28;20068;-58
2022/01/08 05:31:28;;;;;;;7.20;5.80;;;;;;;;;;10367382;28;20053;-58
2022/01/08 05:36:29;;;;;;;9.73;6.13;;;;;;;;;;10370922;28;20444;-59
2022/01/08 05:41:29;;;;;;;10.57;6.13;;;;;;;;;;10368834;28;20030;-57
2022/01/08 05:46:29;;;;;;;7.77;5.50;;;;;;;;;;10370074;28;20216;-58
2022/01/08 05:51:30;;;;;;;8.50;5.43;;;;;;;;;;10369999;28;20116;-58
2022/01/08 05:56:30;;;;;;;9.40;5.70;;;;;;;;;;10369823;28;20033;-58
2022/01/08 06:01:33;;;;;;;9.83;5.90;;;;;;;;;;10369357;28;20115;-58
2022/01/08 06:06:33;;;;;;;8.38;5.38;;;;;;;;;;10369453;28;20066;-59
2022/01/08 06:11:34;;;;;;;7.30;5.10;;;;;;;;;;10369311;28;20135;-58
2022/01/08 06:16:35;;;;;;;6.55;5.30;;;;;;;;;;10367607;28;20494;-58
2022/01/08 06:21:36;;;;;;;9.85;5.65;;;;;;;;;;10369154;28;20044;-58
2022/01/08 06:26:36;;;;;;;7.75;5.32;;;;;;;;;;10368587;28;20358;-58
2022/01/08 06:31:37;;;;;;;8.87;5.73;;;;;;;;;;10365381;28;20024;-58
2022/01/08 06:36:37;;;;;;;7.43;5.28;;;;;;;;;;10368819;28;20958;-58
2022/01/08 06:41:38;;;;;;;9.60;5.72;;;;;;;;;;10364965;28;20461;-58
2022/01/08 06:46:40;;;;;;;7.68;5.25;;;;;;;;;;10368546;28;20036;-56
2022/01/08 06:51:41;;;;;;;7.63;5.93;;;;;;;;;;10368490;28;20030;-58
2022/01/08 06:56:41;;;;;;;7.47;5.20;;;;;;;;;;10367898;28;20075;-58
2022/01/08 07:01:41;;;;;;;6.30;4.93;;;;;;;;;;10367418;28;20225;-58
2022/01/08 07:06:42;;;;;;;8.07;4.97;;;;;;;;;;10367657;28;20033;-58
2022/01/08 07:11:42;;;;;;;7.47;5.20;;;;;;;;;;10367438;28;20462;-58
2022/01/08 07:16:44;;;;;;;7.87;4.97;;;;;;;;;;10367348;28;20050;-58
2022/01/08 07:21:44;;;;;;;8.27;4.93;;;;;;;;;;10367008;28;20530;-59
2022/01/08 07:26:44;;;;;;;6.10;5.10;;;;;;;;;;10367749;28;20060;-59
2022/01/08 07:31:45;;;;;;;7.97;5.67;;;;;;;;;;10366624;28;20799;-59
2022/01/08 07:36:45;;;;;;;7.30;5.22;;;;;;;;;;10367790;28;20459;-59
2022/01/08 07:41:45;;;;;;;5.70;4.57;;;;;;;;;;10363670;28;20103;-59
2022/01/08 07:46:46;;;;;;;6.88;5.10;;;;;;;;;;10364105;28;20458;-59
2022/01/08 07:51:46;;;;;;;7.33;5.23;;;;;;;;;;10367620;28;20410;-59
2022/01/08 07:56:47;;;;;;;6.37;4.73;;;;;;;;;;10366828;28;20551;-59
2022/01/08 08:01:47;;;;;;;6.80;4.43;;;;;;;;;;10368312;28;20034;-60
2022/01/08 08:06:48;;;;;;;5.80;4.30;;;;;;;;;;10372553;28;20566;-54
2022/01/08 08:11:48;;;;;;;6.90;4.85;;;;;;;;;;10373399;28;20455;-53
2022/01/08 08:16:49;;;;;;;7.15;4.95;;;;;;;;;;10372706;28;20030;-53
2022/01/08 08:21:49;;;;;;;7.85;4.38;;;;;;;;;;10372882;28;20021;-52
2022/01/08 08:26:49;;;;;;;8.03;4.33;;;;;;;;;;10372072;28;20026;-54
2022/01/08 08:31:50;;;;;;;8.10;4.70;;;;;;;;;;10371515;28;20594;-54
2022/01/08 08:36:50;;;;;;;8.97;4.40;;;;;;;;;;10371764;28;20041;-55
2022/01/08 08:41:51;;;;;;;8.97;4.40;;;;;;;;;;10371935;28;20037;-56
2022/01/08 08:46:51;;;;;;;12.85;4.50;;;;;;;;;;10366424;28;20470;-55
2022/01/08 08:51:52;;;;;;;6.57;4.63;;;;;;;;;;10372089;28;20096;-55
2022/01/08 08:56:52;;;;;;;7.70;4.67;;;;;;;;;;10371991;28;20030;-54
2022/01/08 09:01:54;;;;;;;11.88;5.38;;;;;;;;;;10369578;28;20475;-53
2022/01/08 09:06:57;;;;;;;12.68;5.97;;;;;;;;;;10371706;28;20034;-54
2022/01/08 09:11:57;;;;;;;13.35;5.63;;;;;;;;;;10371128;28;20349;-50
2022/01/08 09:17:02;;;;;;;10.13;5.72;;;;;;;;;;10371525;28;20245;-55
2022/01/08 09:22:04;;;;;;;7.63;5.50;;;;;;;;;;10370530;28;20054;-54
2022/01/08 09:27:05;;;;;;;9.27;6.43;;;;;;;;;;10370885;28;20033;-54
2022/01/08 09:32:06;;;;;;;8.20;6.03;;;;;;;;;;10370735;28;20029;-53
2022/01/08 09:37:06;;;;;;;10.32;5.68;;;;;;;;;;10369235;28;20041;-51
2022/01/08 09:42:10;;;;;;;10.80;5.30;;;;;;;;;;10369549;28;20508;-52
2022/01/08 09:47:13;;;;;;;9.52;5.40;;;;;;;;;;10366633;28;20447;-54
2022/01/08 09:52:14;;;;;;;7.40;5.22;;;;;;;;;;10369648;28;20413;-50
2022/01/08 09:57:14;;;;;;;7.20;4.65;;;;;;;;;;10365291;28;20091;-51
2022/01/08 10:02:19;;;;;;;8.85;4.32;;;;;;;;;;10369165;28;20034;-53
2022/01/08 10:07:26;;;;;;;6.47;4.72;;;;;;;;;;10369825;28;20022;-54
2022/01/08 10:12:44;;;;;;;8.65;5.22;;;;;;;;;;10368755;28;20045;-54
2022/01/08 10:17:45;;;;;;;9.80;4.78;;;;;;;;;;10368391;28;20509;-50
2022/01/08 10:22:57;;;;;;;7.50;4.55;;;;;;;;;;10367477;28;20034;-51
2022/01/08 10:27:58;;;;;;;6.70;4.80;;;;;;;;;;10367863;28;20022;-54
2022/01/08 10:32:59;;;;;;;10.67;4.50;;;;;;;;;;10366592;28;20374;-52
2022/01/08 10:38:00;;;;;;;10.30;4.93;;;;;;;;;;10367755;28;20037;-50
2022/01/08 10:43:00;;;;;;;7.67;4.40;;;;;;;;;;10368346;28;20028;-50
2022/01/08 10:48:05;;;;;;;10.45;4.43;;;;;;;;;;10368473;28;20060;-54
2022/01/08 10:53:05;;;;;;;6.60;4.75;;;;;;;;;;10364252;28;20496;-54
2022/01/08 10:58:06;;;;;;;7.80;4.53;;;;;;;;;;10368405;28;20040;-54
2022/01/08 11:03:11;;;;;;;6.87;4.57;;;;;;;;;;10364360;28;20550;-51
2022/01/08 11:08:13;;;;;;;7.68;4.70;;;;;;;;;;10367113;28;20089;-50
2022/01/08 11:13:15;;;;;;;6.20;4.13;;;;;;;;;;10367019;28;20072;-53
2022/01/08 11:18:18;;;;;;;5.75;3.83;;;;;;;;;;10365811;28;20033;-55
2022/01/08 11:23:22;;;;;;;7.03;4.47;;;;;;;;;;10367007;28;20030;-55
2022/01/08 11:28:34;;;;;;;6.53;3.83;;;;;;;;;;10367693;28;20032;-46
2022/01/08 11:33:36;;;;;;;6.97;4.03;;;;;;;;;;10365969;28;20037;-53
2022/01/08 11:38:37;;;;;;;7.28;4.05;;;;;;;;;;10373627;28;20075;-52
2022/01/08 11:43:38;;;;;;;5.53;3.70;;;;;;;;;;10374238;28;20034;-55
2022/01/08 11:48:44;;;;;;;8.75;3.75;;;;;;;;;;10374738;28;20026;-51
2022/01/08 11:53:52;;;;;;;7.75;3.70;;;;;;;;;;10373931;28;20306;-51
2022/01/08 11:59:29;;;;;;;5.20;3.80;;;;;;;;;;10374187;28;20026;-53
2022/01/08 12:04:32;;;;;;;7.85;4.13;;;;;;;;;;10348491;28;20302;-54
2022/01/08 12:09:35;;;;;;;4.78;3.90;;;;;;;;;;10370806;28;20029;-51
2022/01/08 12:14:36;;;;;;;5.50;3.97;;;;;;;;;;10374006;28;20045;-52
2022/01/08 12:19:38;;;;;;;8.87;4.33;;;;;;;;;;10373781;28;20462;-52
2022/01/08 12:24:39;;;;;;;9.00;4.53;;;;;;;;;;10372948;28;20034;-53
2022/01/08 12:29:41;;;;;;;9.45;4.57;;;;;;;;;;10373651;28;20026;-53
2022/01/08 12:34:48;;;;;;;7.25;4.25;;;;;;;;;;10373072;28;20105;-53
2022/01/08 12:39:54;;;;;;;6.60;4.43;;;;;;;;;;10373008;28;20503;-50
2022/01/08 12:45:08;;;;;;;5.45;3.88;;;;;;;;;;10372816;28;20069;-51
2022/01/08 12:50:26;;;;;;;6.80;4.57;;;;;;;;;;10369692;28;20024;-52
2022/01/08 12:55:26;;;;;;;7.75;4.45;;;;;;;;;;10372892;28;20033;-53
2022/01/08 13:00:27;;;;;;;7.47;4.32;;;;;;;;;;10371150;28;20030;-50
2022/01/08 13:05:32;;;;;;;7.55;4.15;;;;;;;;;;10367788;28;20025;-56
2022/01/08 13:10:33;;;;;;;6.97;4.53;;;;;;;;;;10371777;28;20159;-52
2022/01/08 13:15:33;;;;;;;6.30;3.80;;;;;;;;;;10367647;28;20176;-54
2022/01/08 13:20:34;;;;;;;5.40;3.78;;;;;;;;;;10370520;28;20454;-48
2022/01/08 13:25:34;;;;;;;7.93;3.93;;;;;;;;;;10366864;28;20084;-53
2022/01/08 13:30:36;;;;;;;5.87;3.83;;;;;;;;;;10366278;28;20486;-51
2022/01/08 13:35:37;;;;;;;4.97;3.53;;;;;;;;;;10367730;28;20493;-53
2022/01/08 13:40:39;;;;;;;4.30;3.35;;;;;;;;;;10369110;28;20041;-49
2022/01/08 13:45:51;;;;;;;4.75;3.70;;;;;;;;;;10370360;28;20045;-49
2022/01/08 13:50:57;;;;;;;8.32;4.15;;;;;;;;;;10370396;28;20056;-49
2022/01/08 13:55:59;;;;;;;7.38;4.13;;;;;;;;;;10370099;28;20037;-58
2022/01/08 14:01:10;;;;;;;6.50;3.83;;;;;;;;;;10368717;28;20490;-60
2022/01/08 14:06:22;;;;;;;4.13;3.13;;;;;;;;;;10369562;28;20040;-60
2022/01/08 14:11:23;;;;;;;5.53;3.38;;;;;;;;;;10369933;28;20022;-60
2022/01/08 14:16:35;;;;;;;6.53;4.00;;;;;;;;;;10365646;28;20048;-54
2022/01/08 14:21:36;;;;;;;5.22;3.25;;;;;;;;;;10366428;28;20034;-57
2022/01/08 14:26:36;;;;;;;4.38;3.53;;;;;;;;;;10367577;28;20025;-57
2022/01/08 14:31:37;;;;;;;5.83;3.50;;;;;;;;;;10367763;28;20034;-54
2022/01/08 14:36:53;;;;;;;5.78;3.60;;;;;;;;;;10369099;28;20898;-58
2022/01/08 14:41:54;;;;;;;7.05;3.58;;;;;;;;;;10368900;28;20088;-56
2022/01/08 14:46:56;;;;;;;5.25;3.40;;;;;;;;;;10368406;28;20041;-50
2022/01/08 14:51:56;;;;;;;3.45;3.08;;;;;;;;;;10368919;28;20022;-57
2022/01/08 14:56:57;;;;;;;4.75;3.67;;;;;;;;;;10368609;28;20072;-48
2022/01/08 15:01:58;;;;;;;4.65;3.13;;;;;;;;;;10367934;28;20053;-50
2022/01/08 15:06:58;;;;;;;7.00;3.80;;;;;;;;;;10367963;28;20370;-46
2022/01/08 15:11:59;;;;;;;16.20;3.88;;;;;;;;;;10370868;28;20443;-50
2022/01/08 15:17:01;;;;;;;10.83;3.27;;;;;;;;;;10374970;28;20436;-45
2022/01/08 15:22:02;;;;;;;11.27;3.50;;;;;;;;;;10374987;28;20038;-53
2022/01/08 15:27:02;;;;;;;4.45;3.00;;;;;;;;;;10375170;28;20033;-47
2022/01/08 15:32:04;;;;;;;5.57;3.08;;;;;;;;;;10375762;28;20030;-56
2022/01/08 15:37:05;;;;;;;3.72;3.13;;;;;;;;;;10375668;28;20469;-57
2022/01/08 15:42:07;;;;;;;4.25;2.90;;;;;;;;;;10375882;28;20028;-57
2022/01/08 15:47:08;;;;;;;3.75;2.92;;;;;;;;;;10375793;28;20037;-61
2022/01/08 15:52:08;;;;;;;6.82;2.90;;;;;;;;;;10374880;28;20022;-59
2022/01/08 15:57:09;;;;;;;5.13;3.22;;;;;;;;;;10375490;28;20030;-57
2022/01/08 16:02:09;;;;;;;3.42;2.85;;;;;;;;;;10374989;28;20038;-59
2022/01/08 16:07:10;;;;;;;4.05;2.95;;;;;;;;;;10375035;28;20049;-58
2022/01/08 16:12:10;;;;;;;6.30;3.27;;;;;;;;;;10374465;28;20490;-55
2022/01/08 16:17:11;;;;;;;4.67;3.10;;;;;;;;;;10374109;28;20442;-62
2022/01/08 16:22:11;;;;;;;5.45;3.55;;;;;;;;;;10373158;28;20465;-58
2022/01/08 16:27:12;;;;;;;4.17;2.83;;;;;;;;;;10373833;28;20030;-52
2022/01/08 16:32:12;;;;;;;3.92;3.10;;;;;;;;;;10373972;28;20351;-60
2022/01/08 16:37:12;;;;;;;7.93;3.07;;;;;;;;;;10373533;28;20022;-61
2022/01/08 16:42:14;;;;;;;4.35;2.70;;;;;;;;;;10373984;28;20990;-63
2022/01/08 16:47:17;;;;;;;3.55;2.90;;;;;;;;;;10374036;28;20018;-59
2022/01/08 16:52:18;;;;;;;10.13;3.33;;;;;;;;;;10372650;28;20087;-57
2022/01/08 16:57:18;;;;;;;4.00;3.10;;;;;;;;;;10373107;28;20030;-58
2022/01/08 17:02:19;;;;;;;5.32;3.40;;;;;;;;;;10372197;28;20622;-61
2022/01/08 17:07:19;;;;;;;4.18;3.33;;;;;;;;;;10372038;28;20477;-60
2022/01/08 17:12:20;;;;;;;5.50;3.40;;;;;;;;;;10371511;28;20104;-58
2022/01/08 17:17:21;;;;;;;3.93;3.17;;;;;;;;;;10372147;28;20511;-46
2022/01/08 17:22:21;;;;;;;4.85;3.45;;;;;;;;;;10371060;28;20467;-51
2022/01/08 17:27:21;;;;;;;5.97;3.25;;;;;;;;;;10371117;28;20030;-49
2022/01/08 17:32:22;;;;;;;5.00;3.53;;;;;;;;;;10370497;28;20029;-47
2022/01/08 17:37:22;;;;;;;5.13;3.42;;;;;;;;;;10370509;28;20836;-49
2022/01/08 17:42:23;;;;;;;10.33;3.63;;;;;;;;;;10370362;28;20057;-50
2022/01/08 17:47:24;;;;;;;5.95;4.35;;;;;;;;;;10369540;28;20607;-49
2022/01/08 17:52:25;;;;;;;7.88;4.53;;;;;;;;;;10370101;28;20029;-46
2022/01/08 17:57:26;;;;;;;7.47;4.72;;;;;;;;;;10370233;28;20108;-48
2022/01/08 18:02:26;;;;;;;6.60;4.87;;;;;;;;;;10369389;28;20026;-51
2022/01/08 18:07:27;;;;;;;6.55;4.82;;;;;;;;;;10370336;28;20483;-48
2022/01/08 18:12:27;;;;;;;8.88;5.63;;;;;;;;;;10369753;28;20046;-47
2022/01/08 18:17:27;;;;;;;12.80;5.90;;;;;;;;;;10369052;28;20026;-48
2022/01/08 18:22:28;;;;;;;11.23;6.20;;;;;;;;;;10369012;28;20033;-48
2022/01/08 18:27:28;;;;;;;11.13;6.40;;;;;;;;;;10368645;28;20448;-53
2022/01/08 18:32:29;;;;;;;10.60;6.65;;;;;;;;;;10368162;28;20117;-47
2022/01/08 18:37:29;;;;;;;15.23;7.17;;;;;;;;;;10368734;28;20033;-49
2022/01/08 18:42:30;;;;;;;12.80;7.88;;;;;;;;;;10368333;28;20499;-51
2022/01/08 18:47:30;;;;;;;12.23;7.07;;;;;;;;;;10368384;28;20477;-46
2022/01/08 18:52:31;;;;;;;14.03;7.63;;;;;;;;;;10366228;28;20557;-51
2022/01/08 18:57:31;;;;;;;11.40;7.80;;;;;;;;;;10367767;28;20435;-47
2022/01/08 19:02:31;;;;;;;15.03;8.60;;;;;;;;;;10367707;28;20377;-47
2022/01/08 19:07:32;;;;;;;21.77;8.67;;;;;;;;;;10365873;28;20428;-62
2022/01/08 19:12:33;;;;;;;14.83;8.40;;;;;;;;;;10367716;28;20517;-66
2022/01/08 19:17:33;;;;;;;16.00;8.50;;;;;;;;;;10368106;28;20424;-65
2022/01/08 19:22:34;;;;;;;13.48;9.05;;;;;;;;;;10367761;28;20486;-64
2022/01/08 19:27:34;;;;;;;19.38;9.77;;;;;;;;;;10368200;28;20030;-52
2022/01/08 19:32:35;;;;;;;15.77;9.05;;;;;;;;;;10367561;28;20053;-52
2022/01/08 19:37:35;;;;;;;16.40;9.80;;;;;;;;;;10367287;28;20025;-54
2022/01/08 19:42:36;;;;;;;22.13;10.55;;;;;;;;;;10366969;28;20033;-55
2022/01/08 19:47:36;;;;;;;16.92;10.45;;;;;;;;;;10367247;28;20030;-54
2022/01/08 19:52:37;;;;;;;20.63;10.98;;;;;;;;;;10366018;28;20084;-52
2022/01/08 19:57:37;;;;;;;24.63;11.50;;;;;;;;;;10370655;28;20061;-63
2022/01/08 20:02:38;;;;;;;27.77;11.40;;;;;;;;;;10374146;28;20022;-65
2022/01/08 20:07:39;;;;;;;38.03;11.52;;;;;;;;;;10373911;28;20022;-58
2022/01/08 20:12:39;;;;;;;24.70;11.50;;;;;;;;;;10373241;28;20108;-62
2022/01/08 20:17:40;;;;;;;18.02;10.25;;;;;;;;;;10373900;28;20026;-66
2022/01/08 20:22:40;;;;;;;27.15;11.75;;;;;;;;;;10373842;28;20062;-64
2022/01/08 20:27:42;;;;;;;20.25;10.60;;;;;;;;;;10373104;28;20026;-56
2022/01/08 20:32:42;;;;;;;19.13;10.02;;;;;;;;;;10373268;28;20030;-48
2022/01/08 20:37:43;;;;;;;21.95;11.10;;;;;;;;;;10371334;28;20088;-52
2022/01/08 20:42:43;;;;;;;40.60;12.18;;;;;;;;;;10372293;28;20022;-50
2022/01/08 20:47:43;;;;;;;43.20;11.47;;;;;;;;;;10372376;28;20452;-53
2022/01/08 20:52:44;;;;;;;32.27;11.17;;;;;;;;;;10371955;28;20501;-53
2022/01/08 20:57:44;;;;;;;35.03;10.95;;;;;;;;;;10371845;28;20435;-49
2022/01/08 21:02:45;;;;;;;25.90;12.03;;;;;;;;;;10372451;28;20033;-53
2022/01/08 21:07:45;;;;;;;28.65;11.20;;;;;;;;;;10371314;28;20435;-52
2022/01/08 21:12:45;;;;;;;26.83;10.50;;;;;;;;;;10371976;28;20061;-50
2022/01/08 21:17:46;;;;;;;25.23;11.13;;;;;;;;;;10372708;28;20095;-49
2022/01/08 21:22:48;;;;;;;26.23;10.77;;;;;;;;;;10371282;28;20033;-56
2022/01/08 21:27:48;;;;;;;24.60;11.50;;;;;;;;;;10371414;28;20456;-52
2022/01/08 21:32:49;;;;;;;21.85;11.18;;;;;;;;;;10370655;28;20022;-52
2022/01/08 21:37:54;;;;;;;26.25;10.88;;;;;;;;;;10371209;28;20079;-54
2022/01/08 21:42:56;;;;;;;20.77;11.13;;;;;;;;;;10371540;28;20157;-53
2022/01/08 21:47:56;;;;;;;22.63;10.70;;;;;;;;;;10370761;28;20377;-53
2022/01/08 21:52:56;;;;;;;24.30;12.27;;;;;;;;;;10368872;28;20036;-52
2022/01/08 21:57:57;;;;;;;21.67;11.77;;;;;;;;;;10370160;28;20440;-55
2022/01/08 22:02:58;;;;;;;20.58;11.77;;;;;;;;;;10369993;28;20471;-53
2022/01/08 22:07:58;;;;;;;24.55;11.48;;;;;;;;;;10370872;28;20588;-53
2022/01/08 22:12:59;;;;;;;23.98;11.38;;;;;;;;;;10369908;28;20212;-53
2022/01/08 22:18:00;;;;;;;24.80;11.47;;;;;;;;;;10370048;28;20077;-48
2022/01/08 22:23:01;;;;;;;24.20;11.77;;;;;;;;;;10368908;28;20464;-53
2022/01/08 22:28:02;;;;;;;21.63;11.85;;;;;;;;;;10369778;28;20474;-60
2022/01/08 22:33:03;;;;;;;20.10;11.95;;;;;;;;;;10369572;28;20033;-57
2022/01/08 22:38:03;;;;;;;24.40;12.27;;;;;;;;;;10369590;28;20486;-50
2022/01/08 22:43:03;;;;;;;19.15;12.10;;;;;;;;;;10368644;28;20022;-52
2022/01/08 22:48:04;;;;;;;21.25;12.57;;;;;;;;;;10368276;28;20363;-50
2022/01/08 22:53:05;;;;;;;21.23;13.00;;;;;;;;;;10367773;28;20025;-49
2022/01/08 22:58:08;;;;;;;23.85;14.85;;;;;;;;;;10367018;28;20032;-53
2022/01/08 23:03:09;;;;;;;24.25;14.10;;;;;;;;;;10368542;28;20122;-49
2022/01/08 23:08:10;;;;;;;24.30;15.13;;;;;;;;;;10368566;28;20430;-50
2022/01/08 23:13:10;;;;;;;26.10;15.43;;;;;;;;;;10368101;28;20048;-49
2022/01/08 23:18:11;;;;;;;24.90;16.50;;;;;;;;;;10367920;28;20371;-58
2022/01/08 23:23:13;;;;;;;25.05;16.50;;;;;;;;;;10368163;28;20106;-54
2022/01/08 23:28:14;;;;;;;31.20;17.00;;;;;;;;;;10367465;28;20030;-51
2022/01/08 23:33:14;;;;;;;28.33;16.42;;;;;;;;;;10369457;28;20018;-54
2022/01/08 23:38:15;;;;;;;29.00;17.27;;;;;;;;;;10375756;28;20124;-55
2022/01/08 23:43:15;;;;;;;26.27;16.15;;;;;;;;;;10375020;28;20080;-54
2022/01/08 23:48:16;;;;;;;28.05;16.02;;;;;;;;;;10375117;28;20029;-54
2022/01/08 23:53:16;;;;;;;24.42;15.18;;;;;;;;;;10375005;28;20026;-54
2022/01/08 23:58:16;;;;;;;28.88;16.08;;;;;;;;;;10375004;28;20026;-53
